Time;durP1;ratioP1;P1;durP2;ratioP2;P2;SDS_P1;SDS_P2;PMS_P1;PMS_P2;Temp;Humidity;BMP_temperature;BMP_pressure;BME280_temperature;BME280_humidity;BME280_pressure;Samples;Min_cycle;Max_cycle;Signal;HPM_P1;HPM_P2
2023/04/03 00:00:58;;;;;;;1.42;1.00;;;;;;;;;;5059854;28;20319;-84
2023/04/03 00:03:26;;;;;;;1.30;1.20;;;;;;;;;;5055635;28;20225;-86
2023/04/03 00:05:53;;;;;;;1.10;1.00;;;;;;;;;;5054596;28;20307;-87
2023/04/03 00:08:21;;;;;;;0.93;0.88;;;;;;;;;;5055517;28;20232;-86
2023/04/03 00:10:50;;;;;;;1.35;1.15;;;;;;;;;;5055463;28;20207;-87
2023/04/03 00:13:18;;;;;;;1.92;1.30;;;;;;;;;;5069890;28;20232;-87
2023/04/03 00:15:45;;;;;;;2.10;1.17;;;;;;;;;;5075373;28;20269;-86
2023/04/03 00:18:13;;;;;;;0.95;0.88;;;;;;;;;;5079794;28;20284;-87
2023/04/03 00:20:40;;;;;;;1.52;1.30;;;;;;;;;;5078765;28;20718;-85
2023/04/03 00:23:08;;;;;;;1.85;1.10;;;;;;;;;;5079444;28;20628;-86
2023/04/03 00:25:36;;;;;;;1.98;1.25;;;;;;;;;;5079689;28;20239;-87
2023/04/03 00:28:05;;;;;;;2.55;1.15;;;;;;;;;;5079542;28;20227;-87
2023/04/03 00:30:33;;;;;;;0.80;0.80;;;;;;;;;;5079595;28;20193;-86
2023/04/03 00:33:01;;;;;;;0.90;0.90;;;;;;;;;;5079466;28;20259;-87
2023/04/03 00:35:29;;;;;;;1.20;1.10;;;;;;;;;;5085618;28;20196;-87
2023/04/03 00:37:57;;;;;;;2.15;1.17;;;;;;;;;;5099778;28;20200;-85
2023/04/03 00:40:27;;;;;;;1.85;1.48;;;;;;;;;;5099939;28;20719;-84
2023/04/03 00:43:00;;;;;;;2.40;1.45;;;;;;;;;;5088549;28;20220;-86
2023/04/03 00:45:34;;;;;;;1.38;1.05;;;;;;;;;;5079794;28;20201;-86
2023/04/03 00:48:05;;;;;;;1.33;1.10;;;;;;;;;;5079583;28;20295;-85
2023/04/03 00:50:35;;;;;;;1.88;1.33;;;;;;;;;;5079512;28;20207;-86
2023/04/03 00:53:03;;;;;;;1.95;1.10;;;;;;;;;;5079639;28;20220;-86
2023/04/03 00:55:31;;;;;;;1.67;1.52;;;;;;;;;;5079517;28;20236;-87
2023/04/03 00:57:58;;;;;;;1.45;1.27;;;;;;;;;;5079252;28;20194;-86
2023/04/03 01:00:26;;;;;;;1.17;1.05;;;;;;;;;;5079180;28;20632;-86
2023/04/03 01:02:55;;;;;;;1.33;1.15;;;;;;;;;;5079965;28;20265;-86
2023/04/03 01:05:23;;;;;;;2.92;1.60;;;;;;;;;;5078615;28;20200;-86
2023/04/03 01:07:53;;;;;;;1.63;1.48;;;;;;;;;;5078472;28;20288;-85
2023/04/03 01:10:21;;;;;;;1.25;1.15;;;;;;;;;;5078411;28;20280;-87
2023/04/03 01:12:51;;;;;;;1.30;1.20;;;;;;;;;;5067909;28;20765;-86
2023/04/03 01:15:22;;;;;;;1.83;1.30;;;;;;;;;;5058855;28;20198;-87
2023/04/03 01:17:52;;;;;;;3.95;1.25;;;;;;;;;;5058494;28;20650;-88
2023/04/03 01:21:11;;;;;;;1.75;1.65;;;;;;;;;;5058005;28;20645;-88
2023/04/03 01:24:08;;;;;;;1.55;1.15;;;;;;;;;;5059306;28;20227;-85
2023/04/03 01:26:36;;;;;;;2.28;1.13;;;;;;;;;;5058209;28;20218;-86
2023/04/03 01:29:04;;;;;;;5.07;2.28;;;;;;;;;;5058408;28;20281;-86
2023/04/03 01:31:46;;;;;;;1.90;1.13;;;;;;;;;;5059219;28;20301;-86
2023/04/03 01:34:14;;;;;;;2.85;1.77;;;;;;;;;;5057733;28;20313;-86
2023/04/03 01:36:41;;;;;;;2.35;1.42;;;;;;;;;;5057783;28;20198;-86
2023/04/03 01:39:09;;;;;;;1.95;1.17;;;;;;;;;;5057973;28;20284;-86
2023/04/03 01:41:36;;;;;;;1.85;1.50;;;;;;;;;;5058752;28;20225;-84
2023/04/03 01:44:04;;;;;;;4.97;1.55;;;;;;;;;;5078600;28;20252;-86
2023/04/03 01:46:32;;;;;;;2.13;1.15;;;;;;;;;;5078950;28;20201;-86
2023/04/03 01:49:01;;;;;;;1.25;1.13;;;;;;;;;;5078565;28;20251;-85
2023/04/03 01:51:29;;;;;;;4.20;1.65;;;;;;;;;;5079091;28;20256;-86
2023/04/03 01:53:56;;;;;;;3.67;1.20;;;;;;;;;;5079037;28;20348;-88
2023/04/03 01:56:24;;;;;;;2.80;1.60;;;;;;;;;;5078370;28;20264;-86
2023/04/03 01:58:52;;;;;;;1.92;1.55;;;;;;;;;;5078385;28;20216;-87
2023/04/03 02:01:21;;;;;;;3.10;1.75;;;;;;;;;;5079310;28;20247;-87
2023/04/03 02:03:48;;;;;;;1.92;1.30;;;;;;;;;;5076936;28;20229;-86
2023/04/03 02:06:17;;;;;;;2.72;1.17;;;;;;;;;;5076630;28;20262;-86
2023/04/03 02:08:44;;;;;;;4.40;1.50;;;;;;;;;;5076215;28;20270;-86
2023/04/03 02:11:12;;;;;;;1.48;1.20;;;;;;;;;;5076331;28;20236;-86
2023/04/03 02:13:39;;;;;;;4.07;1.30;;;;;;;;;;5076781;28;20307;-86
2023/04/03 02:16:12;;;;;;;3.40;1.55;;;;;;;;;;5076301;28;20235;-86
2023/04/03 02:18:40;;;;;;;1.10;1.00;;;;;;;;;;5076457;28;20204;-86
2023/04/03 02:21:07;;;;;;;1.92;1.40;;;;;;;;;;5076776;28;20300;-86
2023/04/03 02:23:36;;;;;;;1.60;1.50;;;;;;;;;;5076734;28;20227;-87
2023/04/03 02:26:07;;;;;;;4.43;1.52;;;;;;;;;;5076577;28;20205;-86
2023/04/03 02:28:35;;;;;;;1.67;1.40;;;;;;;;;;5076686;28;20660;-86
2023/04/03 02:31:02;;;;;;;1.42;1.33;;;;;;;;;;5076773;28;20205;-86
2023/04/03 02:33:30;;;;;;;1.52;1.42;;;;;;;;;;5076455;28;20228;-85
2023/04/03 02:35:58;;;;;;;4.15;1.30;;;;;;;;;;5075983;28;20243;-86
2023/04/03 02:38:26;;;;;;;1.20;1.10;;;;;;;;;;5075916;28;20292;-87
2023/04/03 02:41:00;;;;;;;2.30;1.55;;;;;;;;;;5076569;28;20227;-86
2023/04/03 02:43:27;;;;;;;3.58;2.08;;;;;;;;;;5060409;28;20233;-86
2023/04/03 02:45:55;;;;;;;1.70;1.60;;;;;;;;;;5056764;28;20288;-85
2023/04/03 02:48:22;;;;;;;1.45;1.20;;;;;;;;;;5056397;28;20232;-86
2023/04/03 02:50:51;;;;;;;2.28;1.35;;;;;;;;;;5055802;28;20230;-86
2023/04/03 02:53:18;;;;;;;1.83;1.52;;;;;;;;;;5056256;28;20308;-86
2023/04/03 02:55:46;;;;;;;3.03;1.35;;;;;;;;;;5056497;28;20236;-86
2023/04/03 02:58:15;;;;;;;1.30;1.20;;;;;;;;;;5056350;28;20259;-85
2023/04/03 03:00:42;;;;;;;3.08;1.50;;;;;;;;;;5056579;28;20274;-86
2023/04/03 03:03:10;;;;;;;5.38;2.17;;;;;;;;;;5056016;28;20317;-85
2023/04/03 03:05:37;;;;;;;3.72;1.60;;;;;;;;;;5056146;28;20201;-85
2023/04/03 03:08:05;;;;;;;2.65;1.55;;;;;;;;;;5055682;28;20256;-86
2023/04/03 03:10:32;;;;;;;2.15;1.33;;;;;;;;;;5055766;28;20244;-87
2023/04/03 03:13:00;;;;;;;2.40;1.70;;;;;;;;;;5068007;28;20248;-86
2023/04/03 03:15:29;;;;;;;1.73;1.63;;;;;;;;;;5075539;28;20201;-85
2023/04/03 03:17:57;;;;;;;4.35;1.65;;;;;;;;;;5076515;28;20232;-85
2023/04/03 03:20:24;;;;;;;3.47;1.20;;;;;;;;;;5075215;28;20898;-86
2023/04/03 03:22:52;;;;;;;2.30;1.30;;;;;;;;;;5076301;28;20292;-85
2023/04/03 03:25:19;;;;;;;1.85;1.17;;;;;;;;;;5076729;28;20251;-87
2023/04/03 03:27:47;;;;;;;2.97;1.75;;;;;;;;;;5076372;28;20297;-86
2023/04/03 03:30:14;;;;;;;2.17;1.45;;;;;;;;;;5075831;28;20240;-85
2023/04/03 03:32:43;;;;;;;2.67;1.30;;;;;;;;;;5076232;28;20271;-85
2023/04/03 03:35:11;;;;;;;4.13;1.83;;;;;;;;;;5075537;28;20207;-86
2023/04/03 03:37:38;;;;;;;1.92;1.40;;;;;;;;;;5075574;28;20232;-85
2023/04/03 03:40:07;;;;;;;3.03;1.40;;;;;;;;;;5076316;28;20200;-85
2023/04/03 03:42:35;;;;;;;2.03;1.38;;;;;;;;;;5075765;28;20236;-86
2023/04/03 03:45:02;;;;;;;5.35;1.90;;;;;;;;;;5075484;28;20638;-86
2023/04/03 03:47:30;;;;;;;2.90;1.90;;;;;;;;;;5075689;28;20197;-86
2023/04/03 03:49:59;;;;;;;2.63;1.20;;;;;;;;;;5076086;28;20197;-86
2023/04/03 03:52:26;;;;;;;4.43;1.80;;;;;;;;;;5080130;28;20213;-85
2023/04/03 03:54:54;;;;;;;1.90;1.38;;;;;;;;;;5080076;28;20208;-85
2023/04/03 03:57:21;;;;;;;1.60;1.30;;;;;;;;;;5079573;28;20239;-87
2023/04/03 03:59:51;;;;;;;1.58;1.10;;;;;;;;;;5079644;28;20224;-85
2023/04/03 04:02:19;;;;;;;3.10;1.48;;;;;;;;;;5079559;28;20220;-85
2023/04/03 04:04:46;;;;;;;3.72;2.13;;;;;;;;;;5079069;28;20201;-86
2023/04/03 04:07:23;;;;;;;2.30;1.15;;;;;;;;;;5078760;28;20235;-85
2023/04/03 04:09:51;;;;;;;2.28;1.30;;;;;;;;;;5079777;28;20624;-85
2023/04/03 04:12:18;;;;;;;3.20;1.58;;;;;;;;;;5073123;28;20263;-86
2023/04/03 04:14:46;;;;;;;2.88;1.42;;;;;;;;;;5058994;28;20284;-86
2023/04/03 04:17:14;;;;;;;2.42;1.80;;;;;;;;;;5059067;28;20205;-86
2023/04/03 04:19:41;;;;;;;2.10;1.10;;;;;;;;;;5058635;28;20212;-86
2023/04/03 04:22:09;;;;;;;1.60;1.35;;;;;;;;;;5059009;28;20219;-86
2023/04/03 04:24:38;;;;;;;2.60;1.70;;;;;;;;;;5059990;28;20293;-87
2023/04/03 04:27:06;;;;;;;2.78;1.60;;;;;;;;;;5061162;28;20636;-85
2023/04/03 04:29:35;;;;;;;1.20;1.13;;;;;;;;;;5059255;28;20201;-85
2023/04/03 04:32:03;;;;;;;2.97;1.85;;;;;;;;;;5058626;28;20224;-86
2023/04/03 04:34:31;;;;;;;3.03;1.10;;;;;;;;;;5058058;28;20197;-86
2023/04/03 04:36:58;;;;;;;3.72;1.23;;;;;;;;;;5058413;28;20208;-86
2023/04/03 04:39:26;;;;;;;2.15;1.63;;;;;;;;;;5058557;28;20248;-85
2023/04/03 04:41:55;;;;;;;1.33;1.17;;;;;;;;;;5058504;28;20245;-85
2023/04/03 04:44:22;;;;;;;1.95;1.00;;;;;;;;;;5058618;28;20257;-85
2023/04/03 04:46:49;;;;;;;1.73;1.10;;;;;;;;;;5058655;28;20248;-85
2023/04/03 04:49:17;;;;;;;3.08;1.52;;;;;;;;;;5058599;28;20285;-85
2023/04/03 04:51:44;;;;;;;3.47;2.15;;;;;;;;;;5058086;28;20244;-85
2023/04/03 04:54:12;;;;;;;5.13;2.22;;;;;;;;;;5058187;28;20253;-84
2023/04/03 04:56:40;;;;;;;1.60;1.50;;;;;;;;;;5059241;28;20197;-86
2023/04/03 04:59:09;;;;;;;2.30;1.42;;;;;;;;;;5060397;28;20212;-86
2023/04/03 05:01:36;;;;;;;1.73;1.42;;;;;;;;;;5061349;28;20225;-87
2023/04/03 05:04:04;;;;;;;2.45;1.80;;;;;;;;;;5060156;28;20221;-85
2023/04/03 05:06:32;;;;;;;1.65;1.00;;;;;;;;;;5059790;28;20659;-85
2023/04/03 05:09:00;;;;;;;2.38;1.55;;;;;;;;;;5059833;28;20209;-85
2023/04/03 05:11:27;;;;;;;1.98;1.10;;;;;;;;;;5060234;28;20236;-85
2023/04/03 05:13:55;;;;;;;2.08;1.45;;;;;;;;;;5059631;28;20221;-87
2023/04/03 05:16:25;;;;;;;2.03;1.25;;;;;;;;;;5058729;28;20229;-85
2023/04/03 05:18:52;;;;;;;1.60;1.50;;;;;;;;;;5058740;28;20229;-84
2023/04/03 05:21:23;;;;;;;2.65;1.40;;;;;;;;;;5057274;28;20696;-85
2023/04/03 05:23:50;;;;;;;3.25;1.63;;;;;;;;;;5056784;28;20275;-85
2023/04/03 05:26:17;;;;;;;1.50;1.27;;;;;;;;;;5059152;28;20233;-89
2023/04/03 05:28:45;;;;;;;1.17;1.08;;;;;;;;;;5063900;28;20229;-88
2023/04/03 05:31:13;;;;;;;1.65;1.35;;;;;;;;;;5056711;28;20240;-88
2023/04/03 05:33:42;;;;;;;4.07;1.77;;;;;;;;;;5075543;28;20212;-88
2023/04/03 05:36:10;;;;;;;1.70;1.10;;;;;;;;;;5074842;28;20295;-89
2023/04/03 05:38:38;;;;;;;2.72;2.00;;;;;;;;;;5074875;28;20205;-89
2023/04/03 05:41:21;;;;;;;2.15;2.05;;;;;;;;;;5075477;28;20223;-88
2023/04/03 05:43:49;;;;;;;3.15;1.35;;;;;;;;;;5074978;28;20589;-88
2023/04/03 05:46:19;;;;;;;1.60;1.50;;;;;;;;;;5075091;28;20208;-88
2023/04/03 05:48:48;;;;;;;2.05;1.42;;;;;;;;;;5074865;28;20318;-88
2023/04/03 05:51:18;;;;;;;1.35;1.20;;;;;;;;;;5075078;28;20283;-88
2023/04/03 05:53:46;;;;;;;1.20;1.10;;;;;;;;;;5075333;28;20289;-88
2023/04/03 05:56:14;;;;;;;2.60;1.20;;;;;;;;;;5075176;28;20283;-88
2023/04/03 05:58:41;;;;;;;1.25;1.10;;;;;;;;;;5074566;28;20291;-88
2023/04/03 06:01:09;;;;;;;1.38;1.20;;;;;;;;;;5074922;28;20295;-88
2023/04/03 06:03:36;;;;;;;2.33;1.85;;;;;;;;;;5074716;28;20233;-88
2023/04/03 06:06:07;;;;;;;1.45;1.25;;;;;;;;;;5074368;28;20255;-87
2023/04/03 06:08:35;;;;;;;1.63;1.45;;;;;;;;;;5074417;28;20242;-88
2023/04/03 06:11:03;;;;;;;1.38;1.20;;;;;;;;;;5074299;28;20292;-88
2023/04/03 06:13:31;;;;;;;1.67;1.30;;;;;;;;;;5057229;28;20224;-88
2023/04/03 06:15:59;;;;;;;2.70;1.70;;;;;;;;;;5054188;28;20205;-88
2023/04/03 06:18:26;;;;;;;2.20;1.13;;;;;;;;;;5054545;28;20668;-88
2023/04/03 06:20:54;;;;;;;1.58;1.48;;;;;;;;;;5053883;28;20644;-90
2023/04/03 06:23:23;;;;;;;4.32;1.58;;;;;;;;;;5054038;28;20225;-88
2023/04/03 06:25:50;;;;;;;3.03;1.42;;;;;;;;;;5054385;28;20248;-88
2023/04/03 06:28:19;;;;;;;2.42;1.25;;;;;;;;;;5072258;28;20292;-88
2023/04/03 06:30:46;;;;;;;1.70;1.27;;;;;;;;;;5073706;28;20204;-88
2023/04/03 06:33:14;;;;;;;1.88;1.55;;;;;;;;;;5073598;28;20217;-88
2023/04/03 06:35:41;;;;;;;4.78;2.05;;;;;;;;;;5073512;28;20199;-88
2023/04/03 06:38:09;;;;;;;2.42;1.50;;;;;;;;;;5073756;28;20207;-87
2023/04/03 06:40:38;;;;;;;4.72;1.98;;;;;;;;;;5073074;28;20205;-88
2023/04/03 06:43:07;;;;;;;2.42;1.63;;;;;;;;;;5073288;28;20239;-88
2023/04/03 06:45:34;;;;;;;2.78;1.70;;;;;;;;;;5073957;28;20596;-87
2023/04/03 06:48:02;;;;;;;1.33;1.23;;;;;;;;;;5073422;28;20583;-88
2023/04/03 06:50:29;;;;;;;2.20;1.55;;;;;;;;;;5072753;28;20293;-88
2023/04/03 06:52:57;;;;;;;2.03;1.77;;;;;;;;;;5073472;28;20221;-86
2023/04/03 06:55:24;;;;;;;3.60;1.55;;;;;;;;;;5073673;28;20208;-88
2023/04/03 06:57:53;;;;;;;4.57;1.77;;;;;;;;;;5072829;28;20676;-87
2023/04/03 07:00:22;;;;;;;2.03;1.70;;;;;;;;;;5073037;28;20284;-87
2023/04/03 07:02:49;;;;;;;3.65;2.10;;;;;;;;;;5072797;28;20224;-87
2023/04/03 07:05:16;;;;;;;3.85;1.90;;;;;;;;;;5073030;28;20307;-87
2023/04/03 07:07:44;;;;;;;3.15;2.03;;;;;;;;;;5072569;28;20288;-88
2023/04/03 07:10:12;;;;;;;1.73;1.50;;;;;;;;;;5073598;28;20201;-88
2023/04/03 07:12:39;;;;;;;2.97;1.88;;;;;;;;;;5073269;28;20224;-83
2023/04/03 07:15:10;;;;;;;2.85;1.98;;;;;;;;;;5072921;28;20269;-83
2023/04/03 07:17:38;;;;;;;1.50;1.40;;;;;;;;;;5073055;28;20197;-83
2023/04/03 07:20:08;;;;;;;4.38;3.03;;;;;;;;;;5072476;28;20292;-83
2023/04/03 07:22:35;;;;;;;3.13;2.80;;;;;;;;;;5072507;28;20780;-84
2023/04/03 07:25:03;;;;;;;3.70;2.70;;;;;;;;;;5072445;28;20296;-82
2023/04/03 07:27:30;;;;;;;2.00;1.80;;;;;;;;;;5060169;28;20208;-82
2023/04/03 07:29:58;;;;;;;2.33;1.85;;;;;;;;;;5052512;28;20286;-88
2023/04/03 07:32:27;;;;;;;1.50;1.40;;;;;;;;;;5052388;28;20357;-89
2023/04/03 07:34:54;;;;;;;1.27;1.17;;;;;;;;;;5061881;28;20193;-88
2023/04/03 07:37:22;;;;;;;3.15;1.90;;;;;;;;;;5072579;28;20606;-89
2023/04/03 07:39:50;;;;;;;2.38;1.65;;;;;;;;;;5072130;28;20200;-89
2023/04/03 07:42:18;;;;;;;2.47;1.65;;;;;;;;;;5073006;28;20319;-89
2023/04/03 07:44:46;;;;;;;4.20;2.80;;;;;;;;;;5078409;22;20228;-81
2023/04/03 07:47:16;;;;;;;2.03;1.77;;;;;;;;;;5071564;28;20224;-82
2023/04/03 07:49:44;;;;;;;3.42;2.00;;;;;;;;;;5071878;28;20208;-82
2023/04/03 07:52:12;;;;;;;4.63;2.30;;;;;;;;;;5071982;28;20304;-82
2023/04/03 07:54:40;;;;;;;6.65;2.90;;;;;;;;;;5071880;28;20203;-82
2023/04/03 07:57:08;;;;;;;4.45;2.08;;;;;;;;;;5097309;22;20647;-82
2023/04/03 07:59:35;;;;;;;2.35;2.05;;;;;;;;;;5076937;28;20292;-83
2023/04/03 08:02:04;;;;;;;1.83;1.50;;;;;;;;;;5075860;28;20228;-83
2023/04/03 08:04:32;;;;;;;3.00;1.70;;;;;;;;;;5076624;28;20462;-83
2023/04/03 08:07:01;;;;;;;2.20;1.50;;;;;;;;;;5079708;28;20201;-84
2023/04/03 08:09:28;;;;;;;7.63;1.85;;;;;;;;;;5101201;22;20260;-84
2023/04/03 08:11:56;;;;;;;3.45;1.40;;;;;;;;;;5078600;28;20244;-84
2023/04/03 08:14:23;;;;;;;2.15;1.75;;;;;;;;;;5074930;28;20197;-85
2023/04/03 08:16:51;;;;;;;1.92;1.20;;;;;;;;;;5056222;28;20264;-85
2023/04/03 08:19:19;;;;;;;2.15;1.58;;;;;;;;;;5055529;28;20204;-84
2023/04/03 08:21:46;;;;;;;1.98;1.20;;;;;;;;;;5054129;28;20189;-85
2023/04/03 08:24:15;;;;;;;3.78;1.30;;;;;;;;;;5096228;23;20224;-80
2023/04/03 08:26:43;;;;;;;2.25;1.42;;;;;;;;;;5085336;28;20291;-79
2023/04/03 08:29:10;;;;;;;1.20;1.10;;;;;;;;;;5075802;28;20291;-83
2023/04/03 08:31:38;;;;;;;1.42;1.33;;;;;;;;;;5074508;28;20293;-81
2023/04/03 08:34:05;;;;;;;1.50;1.35;;;;;;;;;;5079613;28;20547;-82
2023/04/03 08:36:33;;;;;;;1.67;1.38;;;;;;;;;;5094943;28;20746;-82
2023/04/03 08:39:00;;;;;;;3.78;1.58;;;;;;;;;;5099708;28;20270;-82
2023/04/03 08:41:34;;;;;;;1.70;1.10;;;;;;;;;;5100801;28;20208;-81
2023/04/03 08:44:18;;;;;;;1.42;0.98;;;;;;;;;;5101485;28;20262;-82
2023/04/03 08:47:11;;;;;;;2.53;1.40;;;;;;;;;;5101032;28;20231;-82
2023/04/03 08:49:46;;;;;;;2.70;1.27;;;;;;;;;;5100529;28;20204;-82
2023/04/03 08:52:18;;;;;;;1.77;1.58;;;;;;;;;;5099865;28;20245;-81
2023/04/03 08:54:52;;;;;;;3.40;1.58;;;;;;;;;;5093666;28;20284;-81
2023/04/03 08:57:29;;;;;;;1.38;1.27;;;;;;;;;;5099598;28;20204;-81
2023/04/03 08:59:58;;;;;;;3.85;1.50;;;;;;;;;;5097756;28;20273;-81
2023/04/03 09:02:30;;;;;;;4.57;1.75;;;;;;;;;;5096859;28;20263;-82
2023/04/03 09:04:57;;;;;;;1.70;1.48;;;;;;;;;;5097670;28;20215;-83
2023/04/03 09:07:37;;;;;;;1.40;1.30;;;;;;;;;;5097691;28;20208;-82
2023/04/03 09:10:06;;;;;;;0.80;0.80;;;;;;;;;;5097374;28;20208;-82
2023/04/03 09:12:41;;;;;;;1.40;1.30;;;;;;;;;;5098759;28;20232;-83
2023/04/03 09:15:18;;;;;;;1.35;1.20;;;;;;;;;;5098367;28;20672;-82
2023/04/03 09:17:58;;;;;;;2.03;1.40;;;;;;;;;;5098436;28;20671;-83
2023/04/03 09:20:34;;;;;;;2.00;1.05;;;;;;;;;;5097581;28;20200;-83
2023/04/03 09:23:01;;;;;;;1.65;1.05;;;;;;;;;;5096665;28;20285;-83
2023/04/03 09:25:33;;;;;;;1.33;1.13;;;;;;;;;;5096923;28;20281;-83
2023/04/03 09:28:03;;;;;;;1.85;1.20;;;;;;;;;;5099608;28;20200;-81
2023/04/03 09:30:31;;;;;;;1.40;1.13;;;;;;;;;;5101039;28;20830;-83
2023/04/03 09:32:59;;;;;;;1.95;1.17;;;;;;;;;;5101598;28;20259;-82
2023/04/03 09:35:31;;;;;;;0.85;0.85;;;;;;;;;;5100696;28;20287;-81
2023/04/03 09:38:01;;;;;;;1.10;1.00;;;;;;;;;;5100290;28;20201;-81
2023/04/03 09:40:38;;;;;;;8.13;5.70;;;;;;;;;;5099620;28;20582;-81
2023/04/03 09:43:32;;;;;;;2.88;1.85;;;;;;;;;;5097853;28;20707;-82
2023/04/03 09:46:23;;;;;;;1.92;1.63;;;;;;;;;;5096921;28;20306;-83
2023/04/03 09:48:56;;;;;;;2.22;1.90;;;;;;;;;;5092555;28;20224;-81
2023/04/03 09:51:28;;;;;;;1.13;1.02;;;;;;;;;;5097810;28;20279;-82
2023/04/03 09:53:56;;;;;;;1.85;1.05;;;;;;;;;;5100064;28;20235;-83
2023/04/03 09:56:27;;;;;;;1.67;1.35;;;;;;;;;;5079955;28;20204;-83
2023/04/03 09:59:16;;;;;;;2.15;1.40;;;;;;;;;;5078852;28;20288;-82
2023/04/03 10:01:59;;;;;;;1.42;1.27;;;;;;;;;;5077810;28;20205;-83
2023/04/03 10:04:26;;;;;;;1.77;1.00;;;;;;;;;;5096525;28;20303;-83
2023/04/03 10:06:56;;;;;;;1.85;1.10;;;;;;;;;;5097724;28;20228;-82
2023/04/03 10:09:25;;;;;;;2.75;1.60;;;;;;;;;;5097516;28;20283;-83
2023/04/03 10:12:04;;;;;;;1.80;1.52;;;;;;;;;;5096755;28;20200;-83
2023/04/03 10:14:35;;;;;;;1.30;1.00;;;;;;;;;;5096575;28;20277;-81
2023/04/03 10:17:19;;;;;;;1.58;1.10;;;;;;;;;;5096950;28;20694;-80
2023/04/03 10:19:49;;;;;;;1.15;1.02;;;;;;;;;;5097529;28;20204;-81
2023/04/03 10:22:23;;;;;;;2.00;1.17;;;;;;;;;;5099293;28;20196;-83
2023/04/03 10:25:02;;;;;;;2.17;1.17;;;;;;;;;;5099035;28;20290;-82
2023/04/03 10:27:43;;;;;;;1.20;1.10;;;;;;;;;;5098812;28;20224;-81
2023/04/03 10:30:26;;;;;;;0.77;0.77;;;;;;;;;;5098503;28;20678;-81
2023/04/03 10:33:19;;;;;;;2.25;1.48;;;;;;;;;;5098043;28;20224;-82
2023/04/03 10:35:54;;;;;;;1.60;1.08;;;;;;;;;;5099686;28;20648;-82
2023/04/03 10:38:29;;;;;;;2.05;1.33;;;;;;;;;;5098237;28;20279;-82
2023/04/03 10:41:03;;;;;;;1.42;1.20;;;;;;;;;;5097321;28;20199;-81
2023/04/03 10:43:37;;;;;;;1.92;1.10;;;;;;;;;;5097669;28;20258;-83
2023/04/03 10:46:12;;;;;;;1.67;1.48;;;;;;;;;;5099084;28;20240;-81
2023/04/03 10:49:02;;;;;;;2.40;0.98;;;;;;;;;;5098831;28;20200;-82
2023/04/03 10:51:34;;;;;;;2.70;1.00;;;;;;;;;;5099227;28;20202;-82
2023/04/03 10:54:09;;;;;;;1.70;1.60;;;;;;;;;;5097640;28;20220;-82
2023/04/03 10:56:40;;;;;;;1.33;1.13;;;;;;;;;;5098566;28;20253;-82
2023/04/03 10:59:20;;;;;;;1.85;1.25;;;;;;;;;;5097779;28;20196;-83
2023/04/03 11:01:52;;;;;;;1.60;1.10;;;;;;;;;;5098249;28;20210;-82
2023/04/03 11:04:21;;;;;;;1.70;1.10;;;;;;;;;;5099300;28;20224;-83
2023/04/03 11:06:53;;;;;;;2.15;0.90;;;;;;;;;;5098676;28;20636;-82
2023/04/03 11:09:26;;;;;;;0.90;0.88;;;;;;;;;;5097409;28;20235;-83
2023/04/03 11:11:57;;;;;;;1.10;1.00;;;;;;;;;;5098279;28;20239;-81
2023/04/03 11:14:28;;;;;;;2.88;1.20;;;;;;;;;;5097313;28;20220;-81
2023/04/03 11:17:08;;;;;;;1.42;1.20;;;;;;;;;;5095308;28;20192;-84
2023/04/03 11:19:40;;;;;;;5.68;1.42;;;;;;;;;;5095168;28;20553;-83
2023/04/03 11:22:14;;;;;;;1.90;1.35;;;;;;;;;;5096117;28;20199;-84
2023/04/03 11:24:55;;;;;;;1.30;1.20;;;;;;;;;;5096239;28;20227;-84
2023/04/03 11:27:24;;;;;;;1.88;1.40;;;;;;;;;;5096924;28;20314;-83
2023/04/03 11:29:52;;;;;;;0.90;0.82;;;;;;;;;;5097067;28;20307;-82
2023/04/03 11:32:42;;;;;;;1.20;1.10;;;;;;;;;;5096147;28;20651;-83
2023/04/03 11:35:10;;;;;;;1.52;1.10;;;;;;;;;;5097711;28;20200;-83
2023/04/03 11:37:43;;;;;;;0.98;0.93;;;;;;;;;;5096109;28;20231;-83
2023/04/03 11:40:29;;;;;;;3.63;2.65;;;;;;;;;;5095961;28;20265;-84
2023/04/03 11:43:07;;;;;;;0.93;0.90;;;;;;;;;;5096648;28;20637;-83
2023/04/03 11:45:39;;;;;;;1.55;1.40;;;;;;;;;;5096935;28;20656;-83
2023/04/03 11:48:53;;;;;;;0.88;0.80;;;;;;;;;;5096987;28;20224;-83
2023/04/03 11:51:53;;;;;;;1.20;1.05;;;;;;;;;;5097445;28;20207;-83
2023/04/03 11:54:49;;;;;;;3.00;1.20;;;;;;;;;;5098256;28;20690;-82
2023/04/03 11:58:05;;;;;;;2.20;1.08;;;;;;;;;;5097409;28;20572;-82
2023/04/03 12:00:59;;;;;;;3.17;1.65;;;;;;;;;;5096155;28;20230;-82
2023/04/03 12:04:14;;;;;;;0.80;0.80;;;;;;;;;;5095961;28;20715;-79
2023/04/03 12:07:17;;;;;;;1.70;0.95;;;;;;;;;;5097848;28;20703;-84
2023/04/03 12:10:20;;;;;;;1.20;1.10;;;;;;;;;;5097433;28;20303;-80
2023/04/03 12:13:02;;;;;;;1.05;1.00;;;;;;;;;;5098955;28;20310;-83
2023/04/03 12:15:54;;;;;;;2.30;1.10;;;;;;;;;;5102043;28;20231;-84
2023/04/03 12:18:43;;;;;;;2.60;1.10;;;;;;;;;;5101054;28;20222;-82
2023/04/03 12:21:14;;;;;;;1.00;0.90;;;;;;;;;;5101700;28;20688;-83
2023/04/03 12:24:05;;;;;;;1.63;1.20;;;;;;;;;;5101133;28;20215;-82
2023/04/03 12:26:39;;;;;;;0.75;0.75;;;;;;;;;;5081012;28;20643;-82
2023/04/03 12:29:18;;;;;;;2.33;0.82;;;;;;;;;;5080209;28;20271;-83
2023/04/03 12:31:56;;;;;;;3.53;1.67;;;;;;;;;;5081273;28;20302;-83
2023/04/03 12:34:47;;;;;;;3.30;1.00;;;;;;;;;;5080462;28;20228;-83
2023/04/03 12:37:31;;;;;;;2.00;1.20;;;;;;;;;;5081269;28;20193;-83
2023/04/03 12:40:10;;;;;;;1.30;1.08;;;;;;;;;;5080980;28;20268;-82
2023/04/03 12:43:04;;;;;;;1.38;1.13;;;;;;;;;;5079893;28;20239;-84
2023/04/03 12:45:43;;;;;;;1.10;1.00;;;;;;;;;;5092221;28;20204;-84
2023/04/03 12:48:16;;;;;;;2.05;1.15;;;;;;;;;;5101021;28;20307;-82
2023/04/03 12:50:46;;;;;;;2.08;1.05;;;;;;;;;;5100549;28;20200;-84
2023/04/03 12:53:19;;;;;;;1.02;1.02;;;;;;;;;;5100631;28;20224;-83
2023/04/03 12:55:47;;;;;;;1.30;1.20;;;;;;;;;;5100942;28;20211;-84
2023/04/03 12:58:22;;;;;;;2.97;2.58;;;;;;;;;;5100983;28;20279;-83
2023/04/03 13:01:02;;;;;;;3.13;2.17;;;;;;;;;;5099967;28;20196;-82
2023/04/03 13:03:30;;;;;;;1.52;1.00;;;;;;;;;;5099224;28;20220;-81
2023/04/03 13:06:01;;;;;;;1.63;1.30;;;;;;;;;;5099973;28;20203;-84
2023/04/03 13:08:31;;;;;;;1.92;1.40;;;;;;;;;;5101221;28;20283;-83
2023/04/03 13:11:04;;;;;;;1.77;1.30;;;;;;;;;;5101625;28;20227;-83
2023/04/03 13:13:31;;;;;;;1.15;1.10;;;;;;;;;;5100820;28;20227;-82
2023/04/03 13:16:00;;;;;;;0.90;0.90;;;;;;;;;;5100642;28;20214;-82
2023/04/03 13:18:35;;;;;;;1.67;1.40;;;;;;;;;;5099897;28;20290;-83
2023/04/03 13:21:05;;;;;;;1.40;1.20;;;;;;;;;;5100218;28;20690;-83
2023/04/03 13:23:37;;;;;;;1.95;1.20;;;;;;;;;;5098744;28;20267;-84
2023/04/03 13:26:06;;;;;;;1.73;1.10;;;;;;;;;;5099681;28;20212;-83
2023/04/03 13:28:35;;;;;;;1.33;1.15;;;;;;;;;;5098207;28;20220;-85
2023/04/03 13:31:16;;;;;;;2.20;1.33;;;;;;;;;;5096020;28;20203;-83
2023/04/03 13:33:58;;;;;;;1.00;1.00;;;;;;;;;;5096499;28;20296;-82
2023/04/03 13:36:30;;;;;;;2.10;1.30;;;;;;;;;;5099792;28;20253;-82
2023/04/03 13:39:18;;;;;;;1.83;1.20;;;;;;;;;;5107903;28;20256;-81
2023/04/03 13:41:49;;;;;;;1.10;1.00;;;;;;;;;;5111139;28;20621;-83
2023/04/03 13:44:24;;;;;;;1.60;1.20;;;;;;;;;;5111670;28;20220;-81
2023/04/03 13:46:54;;;;;;;1.30;1.20;;;;;;;;;;5100947;28;20199;-84
2023/04/03 13:49:23;;;;;;;1.92;1.83;;;;;;;;;;5100277;28;20247;-85
2023/04/03 13:51:51;;;;;;;1.45;1.35;;;;;;;;;;5100014;28;20196;-84
2023/04/03 13:54:24;;;;;;;1.20;1.20;;;;;;;;;;5100191;28;20224;-83
2023/04/03 13:56:56;;;;;;;9.05;7.50;;;;;;;;;;5100355;28;20200;-84
2023/04/03 13:59:28;;;;;;;3.72;3.33;;;;;;;;;;5098492;28;20196;-85
2023/04/03 14:02:13;;;;;;;2.72;2.10;;;;;;;;;;5098060;28;20204;-83
2023/04/03 14:04:53;;;;;;;1.88;1.77;;;;;;;;;;5098345;28;20241;-82
2023/04/03 14:07:21;;;;;;;1.55;1.42;;;;;;;;;;5096718;28;20204;-83
2023/04/03 14:09:50;;;;;;;2.03;1.80;;;;;;;;;;5096267;28;20224;-83
2023/04/03 14:12:20;;;;;;;1.75;1.40;;;;;;;;;;5096183;28;20200;-83
2023/04/03 14:14:47;;;;;;;1.83;1.40;;;;;;;;;;5097702;28;20208;-83
2023/04/03 14:17:18;;;;;;;2.20;1.60;;;;;;;;;;5094889;28;20200;-83
2023/04/03 14:19:46;;;;;;;2.25;1.45;;;;;;;;;;5099057;28;20210;-84
2023/04/03 14:22:19;;;;;;;2.33;1.40;;;;;;;;;;5100584;28;20267;-84
2023/04/03 14:27:23;;;;;;;2.17;1.40;;;;;;;;;;5089461;22;20260;-88
2023/04/03 14:29:53;;;;;;;1.70;1.38;;;;;;;;;;5074976;28;20591;-88
2023/04/03 14:32:24;;;;;;;2.45;1.20;;;;;;;;;;5075418;28;20687;-88
2023/04/03 14:34:53;;;;;;;3.40;1.70;;;;;;;;;;5074099;28;20205;-88
2023/04/03 14:37:24;;;;;;;2.95;2.53;;;;;;;;;;5073754;28;20228;-88
2023/04/03 14:39:54;;;;;;;1.50;1.38;;;;;;;;;;5074585;28;20201;-88
2023/04/03 14:42:25;;;;;;;2.25;1.27;;;;;;;;;;5074185;28;20562;-88
2023/04/03 14:44:53;;;;;;;2.42;1.73;;;;;;;;;;5060885;28;20279;-86
2023/04/03 14:47:24;;;;;;;1.50;1.40;;;;;;;;;;5074723;28;20735;-88
2023/04/03 14:49:52;;;;;;;1.63;1.50;;;;;;;;;;5074799;28;20220;-87
2023/04/03 14:52:23;;;;;;;1.75;1.60;;;;;;;;;;5074244;28;20205;-89
2023/04/03 14:54:51;;;;;;;2.20;1.80;;;;;;;;;;5075017;28;20602;-88
2023/04/03 14:57:19;;;;;;;2.25;1.40;;;;;;;;;;5056304;28;20300;-87
2023/04/03 14:59:48;;;;;;;0.90;0.90;;;;;;;;;;5054083;28;20405;-89
2023/04/03 15:02:28;;;;;;;5.90;5.13;;;;;;;;;;5054163;28;20201;-88
2023/04/03 15:04:56;;;;;;;2.15;1.73;;;;;;;;;;5053553;28;20220;-87
2023/04/03 15:07:25;;;;;;;1.58;1.48;;;;;;;;;;5065601;28;20673;-86
2023/04/03 15:09:52;;;;;;;4.13;1.67;;;;;;;;;;5073764;28;20312;-87
2023/04/03 15:12:20;;;;;;;2.70;1.52;;;;;;;;;;5073706;28;20330;-88